sensor_id;sensor_type;location;lat;lon;timestamp;P1;durP1;ratioP1;P2;durP2;ratioP2
27847;SDS011;15212;48.830;8.730;2023-07-31T00:01:24;6.08;;;1.80;;
27847;SDS011;15212;48.830;8.730;2023-07-31T00:03:52;6.42;;;1.92;;
27847;SDS011;15212;48.830;8.730;2023-07-31T00:06:21;5.95;;;1.90;;
27847;SDS011;15212;48.830;8.730;2023-07-31T00:08:49;4.67;;;1.75;;
27847;SDS011;15212;48.830;8.730;2023-07-31T00:11:18;7.35;;;1.87;;
27847;SDS011;15212;48.830;8.730;2023-07-31T00:13:46;4.22;;;1.72;;
27847;SDS011;15212;48.830;8.730;2023-07-31T00:16:14;5.45;;;1.90;;
27847;SDS011;15212;48.830;8.730;2023-07-31T00:18:43;8.00;;;1.87;;
27847;SDS011;15212;48.830;8.730;2023-07-31T00:21:11;4.62;;;1.95;;
27847;SDS011;15212;48.830;8.730;2023-07-31T00:23:40;9.80;;;2.17;;
27847;SDS011;15212;48.830;8.730;2023-07-31T00:26:08;6.28;;;1.80;;
27847;SDS011;15212;48.830;8.730;2023-07-31T00:28:36;3.72;;;1.57;;
27847;SDS011;15212;48.830;8.730;2023-07-31T00:31:05;5.37;;;1.62;;
27847;SDS011;15212;48.830;8.730;2023-07-31T00:33:34;5.15;;;1.80;;
27847;SDS011;15212;48.830;8.730;2023-07-31T00:36:03;5.70;;;1.47;;
27847;SDS011;15212;48.830;8.730;2023-07-31T00:38:31;4.60;;;1.80;;
27847;SDS011;15212;48.830;8.730;2023-07-31T00:40:59;5.05;;;1.57;;
27847;SDS011;15212;48.830;8.730;2023-07-31T00:43:28;6.87;;;1.60;;
27847;SDS011;15212;48.830;8.730;2023-07-31T00:45:56;5.78;;;2.02;;
27847;SDS011;15212;48.830;8.730;2023-07-31T00:48:25;8.73;;;2.15;;
27847;SDS011;15212;48.830;8.730;2023-07-31T00:50:53;6.28;;;1.50;;
27847;SDS011;15212;48.830;8.730;2023-07-31T00:53:22;6.97;;;1.80;;
27847;SDS011;15212;48.830;8.730;2023-07-31T00:55:51;6.47;;;1.82;;
27847;SDS011;15212;48.830;8.730;2023-07-31T00:58:20;6.15;;;1.70;;
27847;SDS011;15212;48.830;8.730;2023-07-31T01:00:49;7.97;;;1.95;;
27847;SDS011;15212;48.830;8.730;2023-07-31T01:03:17;3.87;;;1.90;;
27847;SDS011;15212;48.830;8.730;2023-07-31T01:11:56;6.85;;;1.82;;
27847;SDS011;15212;48.830;8.730;2023-07-31T01:14:28;5.40;;;1.85;;
27847;SDS011;15212;48.830;8.730;2023-07-31T01:16:56;6.85;;;1.92;;
27847;SDS011;15212;48.830;8.730;2023-07-31T01:19:25;9.40;;;2.08;;
27847;SDS011;15212;48.830;8.730;2023-07-31T01:22:12;4.87;;;1.90;;
27847;SDS011;15212;48.830;8.730;2023-07-31T01:24:55;6.37;;;2.17;;
27847;SDS011;15212;48.830;8.730;2023-07-31T01:27:42;4.72;;;1.70;;
27847;SDS011;15212;48.830;8.730;2023-07-31T01:30:16;6.45;;;2.10;;
27847;SDS011;15212;48.830;8.730;2023-07-31T01:32:48;5.00;;;1.80;;
27847;SDS011;15212;48.830;8.730;2023-07-31T01:35:18;6.85;;;2.00;;
27847;SDS011;15212;48.830;8.730;2023-07-31T01:37:47;6.62;;;2.35;;
27847;SDS011;15212;48.830;8.730;2023-07-31T01:40:15;8.18;;;2.10;;
27847;SDS011;15212;48.830;8.730;2023-07-31T01:42:43;7.78;;;2.12;;
27847;SDS011;15212;48.830;8.730;2023-07-31T01:45:12;3.35;;;1.80;;
27847;SDS011;15212;48.830;8.730;2023-07-31T01:47:40;8.40;;;2.47;;
27847;SDS011;15212;48.830;8.730;2023-07-31T01:50:09;6.35;;;1.82;;
27847;SDS011;15212;48.830;8.730;2023-07-31T01:52:37;6.15;;;1.87;;
27847;SDS011;15212;48.830;8.730;2023-07-31T01:55:06;4.55;;;1.87;;
27847;SDS011;15212;48.830;8.730;2023-07-31T01:57:36;7.65;;;2.08;;
27847;SDS011;15212;48.830;8.730;2023-07-31T02:00:05;5.65;;;2.20;;
27847;SDS011;15212;48.830;8.730;2023-07-31T02:02:34;7.72;;;2.20;;
27847;SDS011;15212;48.830;8.730;2023-07-31T02:05:02;6.87;;;2.12;;
27847;SDS011;15212;48.830;8.730;2023-07-31T02:07:31;5.08;;;1.98;;
27847;SDS011;15212;48.830;8.730;2023-07-31T02:09:59;6.78;;;1.90;;
27847;SDS011;15212;48.830;8.730;2023-07-31T02:12:28;8.10;;;2.12;;
27847;SDS011;15212;48.830;8.730;2023-07-31T02:14:59;10.98;;;2.20;;
27847;SDS011;15212;48.830;8.730;2023-07-31T02:17:28;6.90;;;2.00;;
27847;SDS011;15212;48.830;8.730;2023-07-31T02:19:56;4.45;;;2.58;;
27847;SDS011;15212;48.830;8.730;2023-07-31T02:22:24;7.47;;;2.40;;
27847;SDS011;15212;48.830;8.730;2023-07-31T02:24:53;8.28;;;2.10;;
27847;SDS011;15212;48.830;8.730;2023-07-31T02:27:21;7.35;;;2.30;;
27847;SDS011;15212;48.830;8.730;2023-07-31T02:29:51;8.75;;;2.60;;
27847;SDS011;15212;48.830;8.730;2023-07-31T02:32:20;7.17;;;2.47;;
27847;SDS011;15212;48.830;8.730;2023-07-31T02:34:49;7.12;;;2.15;;
27847;SDS011;15212;48.830;8.730;2023-07-31T02:37:17;7.25;;;2.37;;
27847;SDS011;15212;48.830;8.730;2023-07-31T02:39:46;8.78;;;2.50;;
27847;SDS011;15212;48.830;8.730;2023-07-31T02:42:14;5.03;;;2.08;;
27847;SDS011;15212;48.830;8.730;2023-07-31T02:44:43;4.70;;;2.35;;
27847;SDS011;15212;48.830;8.730;2023-07-31T02:47:11;7.80;;;3.05;;
27847;SDS011;15212;48.830;8.730;2023-07-31T02:49:39;4.92;;;2.10;;
27847;SDS011;15212;48.830;8.730;2023-07-31T02:52:08;7.90;;;2.55;;
27847;SDS011;15212;48.830;8.730;2023-07-31T02:54:36;5.42;;;2.05;;
27847;SDS011;15212;48.830;8.730;2023-07-31T02:57:05;6.78;;;2.22;;
27847;SDS011;15212;48.830;8.730;2023-07-31T02:59:33;10.30;;;2.17;;
27847;SDS011;15212;48.830;8.730;2023-07-31T03:02:01;3.85;;;2.02;;
27847;SDS011;15212;48.830;8.730;2023-07-31T03:04:30;7.53;;;2.17;;
27847;SDS011;15212;48.830;8.730;2023-07-31T03:06:58;5.67;;;2.00;;
27847;SDS011;15212;48.830;8.730;2023-07-31T03:09:27;9.30;;;2.22;;
27847;SDS011;15212;48.830;8.730;2023-07-31T03:11:55;6.87;;;2.30;;
27847;SDS011;15212;48.830;8.730;2023-07-31T03:14:23;6.58;;;2.52;;
27847;SDS011;15212;48.830;8.730;2023-07-31T03:16:53;7.83;;;2.40;;
27847;SDS011;15212;48.830;8.730;2023-07-31T03:19:21;8.43;;;2.40;;
27847;SDS011;15212;48.830;8.730;2023-07-31T03:21:49;6.87;;;2.40;;
27847;SDS011;15212;48.830;8.730;2023-07-31T03:24:18;5.70;;;2.10;;
27847;SDS011;15212;48.830;8.730;2023-07-31T03:26:46;10.23;;;2.52;;
27847;SDS011;15212;48.830;8.730;2023-07-31T03:29:15;3.47;;;1.80;;
27847;SDS011;15212;48.830;8.730;2023-07-31T03:31:43;8.95;;;2.30;;
27847;SDS011;15212;48.830;8.730;2023-07-31T03:34:11;7.28;;;2.60;;
27847;SDS011;15212;48.830;8.730;2023-07-31T03:36:40;8.83;;;2.50;;
27847;SDS011;15212;48.830;8.730;2023-07-31T03:39:08;5.20;;;2.35;;
27847;SDS011;15212;48.830;8.730;2023-07-31T03:41:36;6.37;;;2.58;;
27847;SDS011;15212;48.830;8.730;2023-07-31T03:44:05;5.72;;;2.65;;
27847;SDS011;15212;48.830;8.730;2023-07-31T03:46:33;10.93;;;2.20;;
27847;SDS011;15212;48.830;8.730;2023-07-31T03:49:02;5.85;;;2.30;;
27847;SDS011;15212;48.830;8.730;2023-07-31T03:51:30;7.50;;;2.37;;
27847;SDS011;15212;48.830;8.730;2023-07-31T03:53:58;4.30;;;2.00;;
27847;SDS011;15212;48.830;8.730;2023-07-31T03:56:27;5.00;;;2.42;;
27847;SDS011;15212;48.830;8.730;2023-07-31T03:58:55;7.10;;;2.50;;
27847;SDS011;15212;48.830;8.730;2023-07-31T04:01:24;7.03;;;2.33;;
27847;SDS011;15212;48.830;8.730;2023-07-31T04:03:52;5.92;;;2.40;;
27847;SDS011;15212;48.830;8.730;2023-07-31T04:06:21;7.87;;;3.10;;
27847;SDS011;15212;48.830;8.730;2023-07-31T04:08:49;8.73;;;2.72;;
27847;SDS011;15212;48.830;8.730;2023-07-31T04:11:17;6.30;;;2.17;;
27847;SDS011;15212;48.830;8.730;2023-07-31T04:13:46;6.70;;;2.50;;
27847;SDS011;15212;48.830;8.730;2023-07-31T04:16:14;8.90;;;2.40;;
27847;SDS011;15212;48.830;8.730;2023-07-31T04:18:43;8.13;;;2.50;;
27847;SDS011;15212;48.830;8.730;2023-07-31T04:21:11;5.75;;;2.35;;
27847;SDS011;15212;48.830;8.730;2023-07-31T04:23:39;4.85;;;2.33;;
27847;SDS011;15212;48.830;8.730;2023-07-31T04:26:08;7.28;;;2.50;;
27847;SDS011;15212;48.830;8.730;2023-07-31T04:28:36;11.93;;;2.47;;
27847;SDS011;15212;48.830;8.730;2023-07-31T04:31:04;7.08;;;2.47;;
27847;SDS011;15212;48.830;8.730;2023-07-31T04:33:33;7.20;;;2.45;;
27847;SDS011;15212;48.830;8.730;2023-07-31T04:36:01;8.20;;;2.62;;
27847;SDS011;15212;48.830;8.730;2023-07-31T04:38:30;5.47;;;2.30;;
27847;SDS011;15212;48.830;8.730;2023-07-31T04:40:58;6.53;;;2.27;;
27847;SDS011;15212;48.830;8.730;2023-07-31T04:43:27;7.83;;;2.33;;
27847;SDS011;15212;48.830;8.730;2023-07-31T04:45:55;8.23;;;2.40;;
27847;SDS011;15212;48.830;8.730;2023-07-31T04:48:24;5.62;;;2.25;;
27847;SDS011;15212;48.830;8.730;2023-07-31T04:50:52;6.50;;;2.35;;
27847;SDS011;15212;48.830;8.730;2023-07-31T04:53:20;10.13;;;2.60;;
27847;SDS011;15212;48.830;8.730;2023-07-31T04:55:49;7.03;;;2.17;;
27847;SDS011;15212;48.830;8.730;2023-07-31T04:58:17;7.00;;;2.50;;
27847;SDS011;15212;48.830;8.730;2023-07-31T05:00:45;9.20;;;2.40;;
27847;SDS011;15212;48.830;8.730;2023-07-31T05:03:14;7.72;;;2.25;;
27847;SDS011;15212;48.830;8.730;2023-07-31T05:05:42;8.43;;;2.67;;
27847;SDS011;15212;48.830;8.730;2023-07-31T05:08:11;10.43;;;2.60;;
27847;SDS011;15212;48.830;8.730;2023-07-31T05:10:39;7.10;;;1.92;;
27847;SDS011;15212;48.830;8.730;2023-07-31T05:13:07;8.68;;;2.17;;
27847;SDS011;15212;48.830;8.730;2023-07-31T05:15:36;6.80;;;2.20;;
27847;SDS011;15212;48.830;8.730;2023-07-31T05:18:04;12.07;;;2.52;;
27847;SDS011;15212;48.830;8.730;2023-07-31T05:20:33;6.00;;;2.25;;
27847;SDS011;15212;48.830;8.730;2023-07-31T05:23:01;6.20;;;2.30;;
27847;SDS011;15212;48.830;8.730;2023-07-31T05:25:30;5.25;;;2.37;;
27847;SDS011;15212;48.830;8.730;2023-07-31T05:27:58;6.58;;;2.50;;
27847;SDS011;15212;48.830;8.730;2023-07-31T05:30:26;9.40;;;2.30;;
27847;SDS011;15212;48.830;8.730;2023-07-31T05:32:57;5.87;;;2.12;;
27847;SDS011;15212;48.830;8.730;2023-07-31T05:35:25;9.20;;;2.17;;
27847;SDS011;15212;48.830;8.730;2023-07-31T05:37:53;7.25;;;2.47;;
27847;SDS011;15212;48.830;8.730;2023-07-31T05:40:22;7.35;;;2.37;;
27847;SDS011;15212;48.830;8.730;2023-07-31T05:42:50;4.65;;;2.37;;
27847;SDS011;15212;48.830;8.730;2023-07-31T05:45:19;8.98;;;2.33;;
27847;SDS011;15212;48.830;8.730;2023-07-31T05:47:47;7.60;;;2.40;;
27847;SDS011;15212;48.830;8.730;2023-07-31T05:50:15;7.62;;;2.50;;
27847;SDS011;15212;48.830;8.730;2023-07-31T05:52:44;8.68;;;2.75;;
27847;SDS011;15212;48.830;8.730;2023-07-31T05:55:12;4.67;;;2.05;;
27847;SDS011;15212;48.830;8.730;2023-07-31T05:57:42;5.58;;;2.10;;
27847;SDS011;15212;48.830;8.730;2023-07-31T06:00:12;6.70;;;2.10;;
27847;SDS011;15212;48.830;8.730;2023-07-31T06:02:41;6.25;;;2.15;;
27847;SDS011;15212;48.830;8.730;2023-07-31T06:05:09;8.53;;;2.25;;
27847;SDS011;15212;48.830;8.730;2023-07-31T06:07:38;3.10;;;1.95;;
27847;SDS011;15212;48.830;8.730;2023-07-31T06:10:06;4.58;;;2.05;;
27847;SDS011;15212;48.830;8.730;2023-07-31T06:12:35;8.43;;;2.27;;
27847;SDS011;15212;48.830;8.730;2023-07-31T06:15:04;5.60;;;2.00;;
27847;SDS011;15212;48.830;8.730;2023-07-31T06:17:33;6.58;;;2.33;;
27847;SDS011;15212;48.830;8.730;2023-07-31T06:20:01;6.03;;;2.25;;
27847;SDS011;15212;48.830;8.730;2023-07-31T06:22:33;7.60;;;2.42;;
27847;SDS011;15212;48.830;8.730;2023-07-31T06:25:01;8.33;;;2.15;;
27847;SDS011;15212;48.830;8.730;2023-07-31T06:27:30;5.28;;;2.10;;
27847;SDS011;15212;48.830;8.730;2023-07-31T06:29:58;7.15;;;1.95;;
27847;SDS011;15212;48.830;8.730;2023-07-31T06:32:26;4.65;;;2.15;;
27847;SDS011;15212;48.830;8.730;2023-07-31T06:34:55;4.95;;;1.98;;
27847;SDS011;15212;48.830;8.730;2023-07-31T06:37:23;6.47;;;2.10;;
27847;SDS011;15212;48.830;8.730;2023-07-31T06:39:52;9.35;;;2.40;;
27847;SDS011;15212;48.830;8.730;2023-07-31T06:42:20;3.75;;;1.90;;
27847;SDS011;15212;48.830;8.730;2023-07-31T06:44:49;4.15;;;2.05;;
27847;SDS011;15212;48.830;8.730;2023-07-31T06:47:17;5.50;;;2.10;;
27847;SDS011;15212;48.830;8.730;2023-07-31T06:49:45;5.92;;;1.90;;
27847;SDS011;15212;48.830;8.730;2023-07-31T06:52:14;4.85;;;2.10;;
27847;SDS011;15212;48.830;8.730;2023-07-31T06:54:42;4.65;;;1.82;;
27847;SDS011;15212;48.830;8.730;2023-07-31T06:57:10;6.60;;;2.17;;
27847;SDS011;15212;48.830;8.730;2023-07-31T06:59:39;8.40;;;2.30;;
27847;SDS011;15212;48.830;8.730;2023-07-31T07:02:07;6.80;;;2.40;;
27847;SDS011;15212;48.830;8.730;2023-07-31T07:04:36;7.15;;;2.22;;
27847;SDS011;15212;48.830;8.730;2023-07-31T07:07:04;7.00;;;2.45;;
27847;SDS011;15212;48.830;8.730;2023-07-31T07:09:32;5.67;;;1.92;;
27847;SDS011;15212;48.830;8.730;2023-07-31T07:12:01;5.72;;;2.10;;
27847;SDS011;15212;48.830;8.730;2023-07-31T07:14:30;5.17;;;2.15;;
27847;SDS011;15212;48.830;8.730;2023-07-31T07:16:58;8.00;;;2.20;;
27847;SDS011;15212;48.830;8.730;2023-07-31T07:19:27;5.83;;;2.20;;
27847;SDS011;15212;48.830;8.730;2023-07-31T07:21:55;8.68;;;2.35;;
27847;SDS011;15212;48.830;8.730;2023-07-31T07:24:25;9.85;;;1.95;;
27847;SDS011;15212;48.830;8.730;2023-07-31T07:26:54;4.30;;;2.02;;
27847;SDS011;15212;48.830;8.730;2023-07-31T07:29:22;7.00;;;2.30;;
27847;SDS011;15212;48.830;8.730;2023-07-31T07:31:50;6.45;;;2.22;;
27847;SDS011;15212;48.830;8.730;2023-07-31T07:34:19;8.05;;;2.20;;
27847;SDS011;15212;48.830;8.730;2023-07-31T07:36:53;5.58;;;1.95;;
27847;SDS011;15212;48.830;8.730;2023-07-31T07:39:22;4.30;;;2.02;;
27847;SDS011;15212;48.830;8.730;2023-07-31T07:41:50;6.55;;;1.90;;
27847;SDS011;15212;48.830;8.730;2023-07-31T07:44:20;5.40;;;2.30;;
27847;SDS011;15212;48.830;8.730;2023-07-31T07:46:48;6.50;;;2.10;;
27847;SDS011;15212;48.830;8.730;2023-07-31T07:49:16;5.85;;;2.17;;
27847;SDS011;15212;48.830;8.730;2023-07-31T07:51:45;6.78;;;2.27;;
27847;SDS011;15212;48.830;8.730;2023-07-31T07:54:15;6.65;;;2.67;;
27847;SDS011;15212;48.830;8.730;2023-07-31T07:56:45;5.92;;;2.02;;
27847;SDS011;15212;48.830;8.730;2023-07-31T07:59:13;6.70;;;2.22;;
27847;SDS011;15212;48.830;8.730;2023-07-31T08:01:42;6.08;;;2.17;;
27847;SDS011;15212;48.830;8.730;2023-07-31T08:04:10;7.28;;;2.10;;
27847;SDS011;15212;48.830;8.730;2023-07-31T08:06:38;5.15;;;2.00;;
27847;SDS011;15212;48.830;8.730;2023-07-31T08:09:07;4.25;;;2.15;;
27847;SDS011;15212;48.830;8.730;2023-07-31T08:11:35;8.85;;;2.40;;
27847;SDS011;15212;48.830;8.730;2023-07-31T08:14:04;7.00;;;2.60;;
27847;SDS011;15212;48.830;8.730;2023-07-31T08:16:32;6.25;;;2.42;;
27847;SDS011;15212;48.830;8.730;2023-07-31T08:19:00;6.50;;;2.02;;
27847;SDS011;15212;48.830;8.730;2023-07-31T08:21:29;7.80;;;2.30;;
27847;SDS011;15212;48.830;8.730;2023-07-31T08:23:58;9.05;;;2.35;;
27847;SDS011;15212;48.830;8.730;2023-07-31T08:26:26;5.33;;;2.15;;
27847;SDS011;15212;48.830;8.730;2023-07-31T08:28:54;6.20;;;2.47;;
27847;SDS011;15212;48.830;8.730;2023-07-31T08:31:23;7.72;;;2.60;;
27847;SDS011;15212;48.830;8.730;2023-07-31T08:33:52;7.00;;;2.77;;
27847;SDS011;15212;48.830;8.730;2023-07-31T08:36:21;9.88;;;2.50;;
27847;SDS011;15212;48.830;8.730;2023-07-31T08:38:49;7.12;;;2.90;;
27847;SDS011;15212;48.830;8.730;2023-07-31T08:41:18;7.90;;;2.58;;
27847;SDS011;15212;48.830;8.730;2023-07-31T08:43:46;9.78;;;2.90;;
27847;SDS011;15212;48.830;8.730;2023-07-31T08:46:16;8.05;;;2.60;;
27847;SDS011;15212;48.830;8.730;2023-07-31T08:48:45;5.05;;;2.50;;
27847;SDS011;15212;48.830;8.730;2023-07-31T08:51:14;10.90;;;2.62;;
27847;SDS011;15212;48.830;8.730;2023-07-31T08:53:42;9.38;;;2.50;;
27847;SDS011;15212;48.830;8.730;2023-07-31T08:56:11;9.50;;;3.00;;
27847;SDS011;15212;48.830;8.730;2023-07-31T08:58:42;9.25;;;3.15;;
27847;SDS011;15212;48.830;8.730;2023-07-31T09:01:13;8.70;;;2.52;;
27847;SDS011;15212;48.830;8.730;2023-07-31T09:03:43;7.65;;;2.83;;
27847;SDS011;15212;48.830;8.730;2023-07-31T09:06:12;6.67;;;2.60;;
27847;SDS011;15212;48.830;8.730;2023-07-31T09:08:43;12.50;;;2.83;;
27847;SDS011;15212;48.830;8.730;2023-07-31T09:11:11;8.35;;;2.50;;
27847;SDS011;15212;48.830;8.730;2023-07-31T09:13:40;10.43;;;2.80;;
27847;SDS011;15212;48.830;8.730;2023-07-31T09:16:09;8.60;;;2.47;;
27847;SDS011;15212;48.830;8.730;2023-07-31T09:18:53;10.00;;;3.00;;
27847;SDS011;15212;48.830;8.730;2023-07-31T09:21:23;8.43;;;2.65;;
27847;SDS011;15212;48.830;8.730;2023-07-31T09:23:53;12.50;;;2.98;;
27847;SDS011;15212;48.830;8.730;2023-07-31T09:26:32;7.67;;;2.47;;
27847;SDS011;15212;48.830;8.730;2023-07-31T09:29:05;6.15;;;2.47;;
27847;SDS011;15212;48.830;8.730;2023-07-31T09:31:41;7.53;;;2.58;;
27847;SDS011;15212;48.830;8.730;2023-07-31T09:34:11;15.00;;;2.85;;
27847;SDS011;15212;48.830;8.730;2023-07-31T09:36:46;5.85;;;2.42;;
27847;SDS011;15212;48.830;8.730;2023-07-31T09:39:18;7.40;;;2.62;;
27847;SDS011;15212;48.830;8.730;2023-07-31T09:41:47;9.55;;;2.85;;
27847;SDS011;15212;48.830;8.730;2023-07-31T09:44:36;9.25;;;2.80;;
27847;SDS011;15212;48.830;8.730;2023-07-31T09:49:51;7.28;;;2.77;;
27847;SDS011;15212;48.830;8.730;2023-07-31T09:52:19;5.67;;;2.42;;
27847;SDS011;15212;48.830;8.730;2023-07-31T09:54:48;5.00;;;2.40;;
27847;SDS011;15212;48.830;8.730;2023-07-31T09:57:16;5.85;;;2.80;;
27847;SDS011;15212;48.830;8.730;2023-07-31T09:59:46;6.92;;;2.60;;
27847;SDS011;15212;48.830;8.730;2023-07-31T10:02:19;9.60;;;2.75;;
27847;SDS011;15212;48.830;8.730;2023-07-31T10:04:50;8.15;;;2.65;;
27847;SDS011;15212;48.830;8.730;2023-07-31T10:07:20;7.65;;;2.83;;
27847;SDS011;15212;48.830;8.730;2023-07-31T10:09:52;7.50;;;2.80;;
27847;SDS011;15212;48.830;8.730;2023-07-31T10:12:25;7.58;;;2.70;;
27847;SDS011;15212;48.830;8.730;2023-07-31T10:14:54;9.78;;;2.87;;
27847;SDS011;15212;48.830;8.730;2023-07-31T10:17:24;5.85;;;2.70;;
27847;SDS011;15212;48.830;8.730;2023-07-31T10:19:53;8.58;;;2.85;;
27847;SDS011;15212;48.830;8.730;2023-07-31T10:22:23;7.20;;;2.45;;
27847;SDS011;15212;48.830;8.730;2023-07-31T10:24:52;7.25;;;2.50;;
27847;SDS011;15212;48.830;8.730;2023-07-31T10:27:22;8.40;;;2.20;;
27847;SDS011;15212;48.830;8.730;2023-07-31T10:29:51;6.17;;;2.72;;
27847;SDS011;15212;48.830;8.730;2023-07-31T10:32:22;10.95;;;2.85;;
27847;SDS011;15212;48.830;8.730;2023-07-31T10:34:51;7.83;;;2.92;;
27847;SDS011;15212;48.830;8.730;2023-07-31T10:37:21;7.97;;;3.42;;
27847;SDS011;15212;48.830;8.730;2023-07-31T10:40:04;7.05;;;2.30;;
27847;SDS011;15212;48.830;8.730;2023-07-31T10:42:46;7.30;;;2.85;;
27847;SDS011;15212;48.830;8.730;2023-07-31T10:48:05;5.50;;;2.83;;
27847;SDS011;15212;48.830;8.730;2023-07-31T10:50:47;7.30;;;2.60;;
27847;SDS011;15212;48.830;8.730;2023-07-31T10:53:28;8.80;;;2.50;;
27847;SDS011;15212;48.830;8.730;2023-07-31T10:55:59;8.43;;;2.67;;
27847;SDS011;15212;48.830;8.730;2023-07-31T10:58:36;6.70;;;2.42;;
27847;SDS011;15212;48.830;8.730;2023-07-31T11:01:05;6.53;;;2.83;;
27847;SDS011;15212;48.830;8.730;2023-07-31T11:06:15;6.28;;;2.52;;
27847;SDS011;15212;48.830;8.730;2023-07-31T11:08:45;8.68;;;2.60;;
27847;SDS011;15212;48.830;8.730;2023-07-31T11:11:18;6.97;;;2.72;;
27847;SDS011;15212;48.830;8.730;2023-07-31T11:13:51;7.55;;;3.00;;
27847;SDS011;15212;48.830;8.730;2023-07-31T11:16:21;9.40;;;2.83;;
27847;SDS011;15212;48.830;8.730;2023-07-31T11:18:51;6.60;;;2.77;;
27847;SDS011;15212;48.830;8.730;2023-07-31T11:21:22;6.28;;;2.75;;
27847;SDS011;15212;48.830;8.730;2023-07-31T11:23:52;10.10;;;3.30;;
27847;SDS011;15212;48.830;8.730;2023-07-31T11:26:25;9.55;;;2.80;;
27847;SDS011;15212;48.830;8.730;2023-07-31T11:28:54;6.37;;;2.60;;
27847;SDS011;15212;48.830;8.730;2023-07-31T11:31:22;6.85;;;2.75;;
27847;SDS011;15212;48.830;8.730;2023-07-31T11:34:03;6.45;;;2.70;;
27847;SDS011;15212;48.830;8.730;2023-07-31T11:36:33;6.47;;;2.85;;
27847;SDS011;15212;48.830;8.730;2023-07-31T11:39:05;5.53;;;2.80;;
27847;SDS011;15212;48.830;8.730;2023-07-31T11:41:40;7.08;;;2.70;;
27847;SDS011;15212;48.830;8.730;2023-07-31T11:44:09;4.47;;;2.62;;
27847;SDS011;15212;48.830;8.730;2023-07-31T11:46:38;6.97;;;2.85;;
27847;SDS011;15212;48.830;8.730;2023-07-31T11:49:06;5.08;;;2.65;;
27847;SDS011;15212;48.830;8.730;2023-07-31T11:51:36;10.23;;;2.90;;
27847;SDS011;15212;48.830;8.730;2023-07-31T11:54:04;5.60;;;2.50;;
27847;SDS011;15212;48.830;8.730;2023-07-31T11:56:33;7.40;;;3.25;;
27847;SDS011;15212;48.830;8.730;2023-07-31T11:59:01;5.92;;;2.77;;
27847;SDS011;15212;48.830;8.730;2023-07-31T12:01:31;11.83;;;3.10;;
27847;SDS011;15212;48.830;8.730;2023-07-31T12:04:00;7.47;;;2.60;;
27847;SDS011;15212;48.830;8.730;2023-07-31T12:06:38;6.47;;;2.52;;
27847;SDS011;15212;48.830;8.730;2023-07-31T12:09:05;5.83;;;2.65;;
27847;SDS011;15212;48.830;8.730;2023-07-31T12:11:48;6.37;;;2.87;;
27847;SDS011;15212;48.830;8.730;2023-07-31T12:14:21;7.00;;;3.08;;
27847;SDS011;15212;48.830;8.730;2023-07-31T12:16:58;6.97;;;2.60;;
27847;SDS011;15212;48.830;8.730;2023-07-31T12:19:32;8.65;;;2.92;;
27847;SDS011;15212;48.830;8.730;2023-07-31T12:22:01;6.55;;;2.80;;
27847;SDS011;15212;48.830;8.730;2023-07-31T12:24:29;8.65;;;2.85;;
27847;SDS011;15212;48.830;8.730;2023-07-31T12:26:58;7.55;;;2.87;;
27847;SDS011;15212;48.830;8.730;2023-07-31T12:29:35;5.97;;;2.47;;
27847;SDS011;15212;48.830;8.730;2023-07-31T12:32:02;6.30;;;2.62;;
27847;SDS011;15212;48.830;8.730;2023-07-31T12:34:31;7.15;;;2.62;;
27847;SDS011;15212;48.830;8.730;2023-07-31T12:37:05;6.97;;;2.50;;
27847;SDS011;15212;48.830;8.730;2023-07-31T12:39:34;6.40;;;2.62;;
27847;SDS011;15212;48.830;8.730;2023-07-31T12:42:03;5.08;;;2.50;;
27847;SDS011;15212;48.830;8.730;2023-07-31T12:44:32;7.33;;;2.75;;
27847;SDS011;15212;48.830;8.730;2023-07-31T12:47:00;5.75;;;2.58;;
27847;SDS011;15212;48.830;8.730;2023-07-31T12:49:30;6.22;;;2.20;;
27847;SDS011;15212;48.830;8.730;2023-07-31T12:51:58;6.37;;;2.58;;
27847;SDS011;15212;48.830;8.730;2023-07-31T12:54:26;5.42;;;2.42;;
27847;SDS011;15212;48.830;8.730;2023-07-31T12:56:55;6.17;;;2.37;;
27847;SDS011;15212;48.830;8.730;2023-07-31T12:59:23;5.17;;;2.52;;
27847;SDS011;15212;48.830;8.730;2023-07-31T13:01:51;6.92;;;2.20;;
27847;SDS011;15212;48.830;8.730;2023-07-31T13:04:20;5.22;;;2.45;;
27847;SDS011;15212;48.830;8.730;2023-07-31T13:06:48;4.03;;;2.45;;
27847;SDS011;15212;48.830;8.730;2023-07-31T13:09:16;8.28;;;2.80;;
27847;SDS011;15212;48.830;8.730;2023-07-31T13:11:45;5.42;;;2.37;;
27847;SDS011;15212;48.830;8.730;2023-07-31T13:14:13;6.67;;;3.05;;
27847;SDS011;15212;48.830;8.730;2023-07-31T13:16:42;7.08;;;2.62;;
27847;SDS011;15212;48.830;8.730;2023-07-31T13:19:11;5.25;;;2.67;;
27847;SDS011;15212;48.830;8.730;2023-07-31T13:21:39;5.78;;;2.83;;
27847;SDS011;15212;48.830;8.730;2023-07-31T13:24:07;7.00;;;3.00;;
27847;SDS011;15212;48.830;8.730;2023-07-31T13:26:36;4.78;;;2.47;;
27847;SDS011;15212;48.830;8.730;2023-07-31T13:29:05;6.47;;;2.60;;
27847;SDS011;15212;48.830;8.730;2023-07-31T13:31:33;5.72;;;2.35;;
27847;SDS011;15212;48.830;8.730;2023-07-31T13:34:02;7.33;;;3.02;;
27847;SDS011;15212;48.830;8.730;2023-07-31T13:36:30;6.00;;;2.60;;
27847;SDS011;15212;48.830;8.730;2023-07-31T13:39:00;6.35;;;2.47;;
27847;SDS011;15212;48.830;8.730;2023-07-31T13:41:28;7.80;;;2.58;;
27847;SDS011;15212;48.830;8.730;2023-07-31T13:43:56;6.58;;;2.60;;
27847;SDS011;15212;48.830;8.730;2023-07-31T13:46:25;6.15;;;2.52;;
27847;SDS011;15212;48.830;8.730;2023-07-31T13:48:53;6.17;;;2.30;;
27847;SDS011;15212;48.830;8.730;2023-07-31T13:51:22;5.47;;;2.50;;
27847;SDS011;15212;48.830;8.730;2023-07-31T13:53:50;7.55;;;2.72;;
27847;SDS011;15212;48.830;8.730;2023-07-31T13:56:18;5.70;;;2.55;;
27847;SDS011;15212;48.830;8.730;2023-07-31T13:58:47;5.75;;;2.83;;
27847;SDS011;15212;48.830;8.730;2023-07-31T14:01:15;6.10;;;2.72;;
27847;SDS011;15212;48.830;8.730;2023-07-31T14:03:43;3.83;;;2.15;;
27847;SDS011;15212;48.830;8.730;2023-07-31T14:06:12;8.10;;;2.90;;
27847;SDS011;15212;48.830;8.730;2023-07-31T14:08:40;6.17;;;2.50;;
27847;SDS011;15212;48.830;8.730;2023-07-31T14:11:09;7.15;;;2.70;;
27847;SDS011;15212;48.830;8.730;2023-07-31T14:13:37;4.25;;;2.10;;
27847;SDS011;15212;48.830;8.730;2023-07-31T14:16:05;3.83;;;2.33;;
27847;SDS011;15212;48.830;8.730;2023-07-31T14:18:34;5.45;;;2.50;;
27847;SDS011;15212;48.830;8.730;2023-07-31T14:21:02;6.35;;;2.58;;
27847;SDS011;15212;48.830;8.730;2023-07-31T14:23:31;5.12;;;2.10;;
27847;SDS011;15212;48.830;8.730;2023-07-31T14:25:59;5.10;;;2.00;;
27847;SDS011;15212;48.830;8.730;2023-07-31T14:28:27;6.60;;;2.52;;
27847;SDS011;15212;48.830;8.730;2023-07-31T14:30:56;6.47;;;2.40;;
27847;SDS011;15212;48.830;8.730;2023-07-31T14:33:24;3.92;;;2.20;;
27847;SDS011;15212;48.830;8.730;2023-07-31T14:35:52;6.72;;;2.60;;
27847;SDS011;15212;48.830;8.730;2023-07-31T14:38:21;5.65;;;2.20;;
27847;SDS011;15212;48.830;8.730;2023-07-31T14:40:49;7.60;;;2.60;;
27847;SDS011;15212;48.830;8.730;2023-07-31T14:43:18;5.33;;;2.50;;
27847;SDS011;15212;48.830;8.730;2023-07-31T14:45:46;4.65;;;2.60;;
27847;SDS011;15212;48.830;8.730;2023-07-31T14:48:15;6.75;;;2.42;;
27847;SDS011;15212;48.830;8.730;2023-07-31T14:50:43;5.90;;;2.55;;
27847;SDS011;15212;48.830;8.730;2023-07-31T14:53:12;6.37;;;2.37;;
27847;SDS011;15212;48.830;8.730;2023-07-31T14:55:40;4.92;;;2.27;;
27847;SDS011;15212;48.830;8.730;2023-07-31T14:58:09;5.97;;;2.20;;
27847;SDS011;15212;48.830;8.730;2023-07-31T15:00:39;4.17;;;2.22;;
27847;SDS011;15212;48.830;8.730;2023-07-31T15:03:07;5.30;;;2.20;;
27847;SDS011;15212;48.830;8.730;2023-07-31T15:05:35;6.10;;;2.40;;
27847;SDS011;15212;48.830;8.730;2023-07-31T15:08:04;6.62;;;2.33;;
27847;SDS011;15212;48.830;8.730;2023-07-31T15:10:32;6.20;;;2.60;;
27847;SDS011;15212;48.830;8.730;2023-07-31T15:13:00;6.35;;;2.35;;
27847;SDS011;15212;48.830;8.730;2023-07-31T15:15:29;6.37;;;2.70;;